Aeroporto :
LOGIN :

Iscrizione | Disclaimer

   EN    FR    IT 

 










Sommario :    VFR   VFR Marginale   IFR   IFR Intensivo   IFR Molto Intensivo
Visibilità : 
Base nubi : 
>= 8 km
>= 3000ft
5 / 8 km
1000 / 3000 ft
1500m / 5 km
500 / 1000 ft
800 / 1500m
200 / 500 ft
< 800m
< 200 ft
Simboli :   Temporali  Nebbia  Neve Forte  Precipitazioni Forti  Vento > 20 kt
SIGMETs :   Varie  Temporali  Ghiacco  Turbolenza  Onda orograficha  Ceneri Vulcaniche






- Altitudine del aeroporto : 90 ft
- Codice IATA : NTE


LFRS - Nantes

ULTIMO METAR :
  • 251200Z AUTO 31014KT 280V340 9999 FEW041 BKN052 15/07 Q1011 TEMPO 31020G30KT 4500 -SHRA BKN030TCU

METARs OBSOLETI :
  • 251130Z AUTO 32011KT 280V360 9999 BKN038 BKN045 OVC052 14/07 Q1011 TEMPO 31020G30KT 4500 -SHRA BKN030TCU
  • 251100Z AUTO 31014KT 280V340 9999 BKN037/// BKN044/// OVC054/// ///TCU 14/07 Q1010 TEMPO 30020G32KT SHRA BKN030CB
  • 251030Z AUTO 31014KT 270V340 9999 OVC038 14/07 Q1010 TEMPO 30020G32KT SHRA BKN030CB
  • 251000Z AUTO 31016KT 260V330 9999 BKN034 BKN040 14/08 Q1010 TEMPO 30020G32KT SHRA BKN030CB
  • 250930Z AUTO 30016KT 260V320 9999 BKN033 14/08 Q1009 TEMPO 30020G32KT SHRA BKN030CB

TAF TAF LFRS
Valido dal 25 a 12 ore il 26 a 18 ore UTC


251100Z 2512/2618 31014KT 9999 SCT030 BKN040
TEMPO 2512/2515 31020G30KT 4500 -SHRA BKN030TCU
ATIS : +33 2 40 05 12 74



MetMap, La meteo Aeronautica in un colpo d'occhio ! - Copyright ORBIFLY Dicembre 2007 - Disclaimer

ORBIFLY MET'MAP TEAM :

Programmazione e sviluppo : Alexandra Zaïnal
Concezione : Baudouin d'Aumeries
Aiuto per la programmazione : Marc-Olivier Méhu
Supporto tecnico e logistico : Manuel Goepfert
Aiuto per la traduzione : Arnaldo La Scala

Contatto : metmap@orbifly.com




FONTI E CREDITI :

   NOAA